Flight Track Log - Related Links

Times and Time Zones

All times are in EDT time to prevent confusion due to time zone crossing. See the SWA267 flight status page for this flight to view local times or setup timezone preferences in your user account.


Time Position Orientation Groundspeed Altitude Reporting Facility
EDT Latitude Longitude Course Direction KTS MPH feet Rate Location/Type
Mon 10:24:07 AM 28.4333 -81.3000 30° Northeast 168 193 900  Level Orlando TRACON
Mon 10:24:55 AM 28.4833 -81.2667 30° Northeast 224 258 2,300 2,059 Climbing Orlando TRACON
Mon 10:25:49 AM 28.5333 -81.2500 16° North 261 300 4,400 2,750 Climbing Orlando TRACON
Mon 10:26:55 AM 28.6167 -81.2667 350° North 266 306 7,800 1,900 Climbing Orlando TRACON
Mon 10:27:49 AM 28.6833 -81.2833 348° North 277 319 8,200 1,697 Climbing Orlando TRACON
Mon 10:29:20 AM 28.8017 -81.3100 349° North 306 352 11,900 2,344 Climbing Jacksonville Center
Mon 10:30:20 AM 28.8917 -81.3344 347° North 318 366 14,100 2,200 Climbing Jacksonville Center
Mon 10:31:20 AM 28.9881 -81.3592 347° North 335 386 16,300 1,900 Climbing Jacksonville Center
Mon 10:32:20 AM 29.0906 -81.3883 346° North 356 410 17,900 2,000 Climbing Jacksonville Center
Mon 10:33:20 AM 29.1994 -81.4011 354° North 376 433 20,300 1,950 Climbing Jacksonville Center
Mon 10:34:20 AM 29.3100 -81.4114 355° North 388 447 21,800 1,600 Climbing Jacksonville Center
Mon 10:35:20 AM 29.4356 -81.4236 355° North 407 468 23,500 1,500 Climbing Jacksonville Center
Mon 10:36:20 AM 29.5567 -81.4361 355° North 414 476 24,800 1,350 Climbing Jacksonville Center
Mon 10:37:20 AM 29.6800 -81.4464 356° North 431 496 26,200 1,350 Climbing Jacksonville Center
Mon 10:38:20 AM 29.8033 -81.4589 355° North 438 504 27,500 1,500 Climbing Jacksonville Center
Mon 10:39:20 AM 29.9267 -81.4714 355° North 443 510 29,200 1,500 Climbing Jacksonville Center
Mon 10:40:20 AM 30.0500 -81.4839 355° North 443 510 30,500 1,150 Climbing Jacksonville Center
Mon 10:41:20 AM 30.1711 -81.4942 356° North 443 510 31,500 1,050 Climbing Jacksonville Center
Mon 10:42:20 AM 30.2967 -81.5069 355° North 443 510 32,600 1,200 Climbing Jacksonville Center
Mon 10:43:20 AM 30.4197 -81.5025 North 443 510 33,900 1,050 Climbing Jacksonville Center
Mon 10:44:20 AM 30.5428 -81.4961 North 438 504 34,700 545 Climbing Jacksonville Center
Mon 10:45:21 AM 30.6658 -81.4844 North 438 504 35,000 150 Climbing Jacksonville Center
Mon 10:46:20 AM 30.7911 -81.4756 North 438 504 35,000  Level Jacksonville Center
Mon 10:47:20 AM 30.9142 -81.4639 North 438 504 35,000  Level Jacksonville Center
Mon 10:48:20 AM 31.0372 -81.4572 North 438 504 35,000  Level Jacksonville Center
Mon 10:49:20 AM 31.1603 -81.4456 North 438 504 35,000  Level Jacksonville Center
Mon 10:50:20 AM 31.2833 -81.4317 North 438 504 35,000  Level Jacksonville Center
Mon 10:51:20 AM 31.4039 -81.3956 14° North 444 511 35,000  Level Jacksonville Center
Mon 10:52:20 AM 31.5164 -81.3669 12° North 449 517 35,000  Level Jacksonville Center
Mon 10:53:20 AM 31.6517 -81.3331 12° North 449 517 35,000  Level Jacksonville Center
Mon 10:54:20 AM 31.7722 -81.2992 13° North 454 522 35,000  Level Jacksonville Center
Mon 10:55:20 AM 31.8781 -81.2461 23° Northeast 445 512 35,000 -50 Level Jacksonville Center
Mon 10:56:20 AM 31.9792 -81.1486 39° Northeast 445 512 34,900  Descending Jacksonville Center
Mon 10:57:20 AM 32.0800 -81.0414 42° Northeast 473 544 35,000 50 Climbing Jacksonville Center
Mon 10:58:20 AM 32.1911 -80.9311 40° Northeast 478 550 35,000  Level Jacksonville Center
Mon 10:59:20 AM 32.2897 -80.8283 41° Northeast 478 550 35,000 -50 Level Jacksonville Center
Mon 11:00:20 AM 32.3797 -80.7278 43° Northeast 483 556 34,900 -50 Descending Jacksonville Center
Mon 11:01:20 AM 32.4803 -80.6244 41° Northeast 483 556 34,900  Level Jacksonville Center
Mon 11:02:20 AM 32.5806 -80.5183 42° Northeast 483 556 34,900  Level Jacksonville Center
Mon 11:03:20 AM 32.6828 -80.4097 42° Northeast 483 556 34,900  Level Jacksonville Center
Mon 11:04:20 AM 32.7831 -80.3031 42° Northeast 478 550 34,900  Level Jacksonville Center
Mon 11:05:20 AM 32.8850 -80.1939 42° Northeast 478 550 34,900  Level Jacksonville Center
Mon 11:06:20 AM 32.9972 -80.0717 42° Northeast 487 560 34,900  Level Jacksonville Center
Mon 11:07:20 AM 33.1011 -79.9617 42° Northeast 487 560 34,900  Level Jacksonville Center
Mon 11:08:20 AM 33.2011 -79.8592 41° Northeast 482 555 34,900  Level Jacksonville Center
Mon 11:09:21 AM 33.3028 -79.7489 42° Northeast 482 555 34,900  Level Jacksonville Center
Mon 11:10:21 AM 33.4022 -79.6433 42° Northeast 482 555 34,900  Level Jacksonville Center
Mon 11:11:20 AM 33.5036 -79.5325 42° Northeast 482 555 34,900  Level Jacksonville Center
Mon 11:12:20 AM 33.6031 -79.4239 42° Northeast 477 549 34,900  Level Jacksonville Center
Mon 11:13:21 AM 33.7042 -79.3125 42° Northeast 482 555 34,900  Level Jacksonville Center
Mon 11:14:20 AM 33.7933 -79.2167 42° Northeast 477 549 34,900  Level Jacksonville Center
Mon 11:16:06 AM 33.9703 -79.0222 42° Northeast 480 552 34,900  Level Washington Center
Mon 11:17:06 AM 34.0717 -78.9111 42° Northeast 480 552 34,900  Level Washington Center
Mon 11:18:06 AM 34.1747 -78.7972 42° Northeast 485 558 34,900  Level Washington Center
Mon 11:19:06 AM 34.2864 -78.6761 42° Northeast 485 558 34,900  Level Washington Center
Mon 11:20:06 AM 34.3936 -78.5642 41° Northeast 495 570 34,900  Level Washington Center
Mon 11:21:06 AM 34.5028 -78.4572 39° Northeast 500 575 34,900  Level Washington Center
Mon 11:22:06 AM 34.6094 -78.3475 40° Northeast 500 575 34,900  Level Washington Center
Mon 11:23:06 AM 34.7164 -78.2400 40° Northeast 495 570 34,900 -50 Level Washington Center
Mon 11:24:06 AM 34.8039 -78.1492 40° Northeast 495 570 34,800 -950 Descending Washington Center
Mon 11:25:06 AM 34.9211 -78.0214 42° Northeast 495 570 33,000 -1,450 Descending Washington Center
Mon 11:26:06 AM 35.0297 -77.9103 40° Northeast 500 575 31,900 -1,050 Descending Washington Center
Mon 11:27:06 AM 35.1383 -77.7992 40° Northeast 500 575 30,900 -5,450 Descending Washington Center
Mon 11:28:06 AM 35.2447 -77.6878 41° Northeast 500 575 21,000 -950 Descending Washington Center
Mon 11:29:06 AM 35.3531 -77.5758 40° Northeast 500 575 29,000 3,500 Climbing Washington Center
Mon 11:30:06 AM 35.4733 -77.4869 31° Northeast 500 575 28,000 -1,350 Descending Washington Center
Mon 11:31:06 AM 35.5914 -77.4081 29° Northeast 495 570 26,300 -2,150 Descending Washington Center
Mon 11:32:06 AM 35.7094 -77.3264 29° Northeast 490 564 23,700 -2,550 Descending Washington Center
Mon 11:33:06 AM 35.8275 -77.2494 28° Northeast 484 557 21,200 -2,350 Descending Washington Center
Mon 11:34:06 AM 35.9392 -77.1722 29° Northeast 474 545 19,000 -1,150 Descending Washington Center
Mon 11:35:06 AM 36.0422 -77.1025 29° Northeast 426 490 18,900  Descending Washington Center
Mon 11:36:06 AM 36.1306 -77.0397 30° Northeast 386 444 19,000 -569 Climbing Washington Center
Mon 11:37:02 AM 36.2211 -76.9822 27° Northeast 382 440 17,800 -1,459 Descending Washington Center
Mon 11:37:57 AM 36.2967 -76.9269 31° Northeast 383 441 16,300 -1,927 Descending Washington Center
Mon 11:38:51 AM 36.3808 -76.8689 29° Northeast 371 427 14,300 -2,348 Descending Washington Center
Mon 11:39:06 AM 36.3978 -76.8408 53° Northeast 370 426 13,600 -2,656 Descending Washington Center
Mon 11:39:52 AM 36.4464 -76.7772 46° Northeast 360 414 11,600 -1,907 Descending Washington Center
Mon 11:40:53 AM 36.5164 -76.6775 49° Northeast 344 396 10,200 -1,240 Descending Washington Center
Mon 11:41:53 AM 36.5692 -76.5953 51° Northeast 292 336 9,100 -1,388 Descending Washington Center
Mon 11:42:54 AM 36.6239 -76.5211 47° Northeast 291 335 7,400 -1,574 Descending Washington Center
Mon 11:43:55 AM 36.6747 -76.4439 51° Northeast 291 335 5,900 -1,273 Descending Washington Center
Mon 11:45:06 AM 36.7336 -76.3592 49° Northeast 272 313 4,600 -1,140 Descending Washington Center
Mon 11:45:56 AM 36.7733 -76.3206 38° Northeast 204 235 3,600 -927 Descending Washington Center
Mon 11:46:56 AM 36.8092 -76.2872 37° Northeast 129 148 2,900 -1,041 Descending Washington Center
Mon 11:47:57 AM 36.8342 -76.2614 40° Northeast 117 135 1,500 -1,031 Descending Washington Center
Mon 11:49:04 AM 36.8658 -76.2331 36° Northeast 116 133 700 -716 Descending Washington Center

Login

Don't have an account? Register now (free) for customized features, flight alerts, and more!